»·PEaware :: N123RF KBUR-KLAS

N123RF :: KBUR-KLAS

FLIGHT INFORMATION

Flight Status: Arrived
Operator: Privately registered:
United States
More flights under this callsign
Pilot: Jacek M. (26729)
Aircraft: BEECH AIRCRAFT BARON
(BE58)
More flights by this aircraft type
Origin: KBUR Bob Hope-Burbank
United States
Destination: KLAS McCarran Intl
United States
More flights between these airports :: More routes between these airports
Route: +VNY3 DAG CRESO4
File this flight plan on PilotEdge
Remarks: I-5 RATING
Altitude:
(Current/Filed)
11,000ft
Speed:
(Current/Filed)
160kts
Departed: 14-Dec-19 10:33 AM
Arrived: 14-Dec-19 12:02 PM
Distance/Time
Traveled:
0nm/1:29
Distance/Time
To Go:
Arrived

Flight Plot

Page will automatically refresh every two minutes.


Map Options




Map Legend


Flown Route
Filed Route
Departure Airport
Arrival Airport
Navaid (VOR, NDB)
Fix

Horizontal Profiles

Position Reports

Time Latitude Longitude Heading Altitude Ground
Speed
14-Dec-19 09:47 34.200232 -118.364526 0 781ft 0kts
14-Dec-19 09:47 34.200232 -118.364526 0 781ft 0kts
14-Dec-19 09:48 34.200232 -118.364526 0 781ft 0kts
14-Dec-19 09:49 34.200232 -118.364526 0 781ft 0kts
14-Dec-19 09:50 34.200232 -118.364526 0 781ft 0kts
14-Dec-19 09:51 34.200233 -118.364526 0 781ft 0kts
14-Dec-19 09:52 34.200233 -118.364526 0 781ft 0kts
14-Dec-19 09:53 34.200234 -118.364526 0 781ft 0kts
14-Dec-19 09:54 34.200234 -118.364526 0 781ft 0kts
14-Dec-19 09:55 34.200235 -118.364526 0 781ft 0kts
14-Dec-19 09:56 34.200235 -118.364526 0 781ft 0kts
14-Dec-19 09:57 34.200236 -118.364526 0 781ft 0kts
14-Dec-19 09:58 34.200236 -118.364526 0 781ft 0kts
14-Dec-19 09:59 34.200237 -118.364526 0 781ft 0kts
14-Dec-19 10:00 34.200237 -118.364526 0 781ft 0kts
14-Dec-19 10:01 34.200238 -118.364526 0 781ft 0kts
14-Dec-19 10:02 34.200238 -118.364526 0 781ft 0kts
14-Dec-19 10:03 34.200239 -118.364526 0 781ft 0kts
14-Dec-19 10:04 34.200239 -118.364526 0 781ft 0kts
14-Dec-19 10:05 34.200239 -118.364526 0 781ft 0kts
14-Dec-19 10:06 34.200240 -118.364526 0 781ft 0kts
14-Dec-19 10:07 34.200240 -118.364526 0 781ft 0kts
14-Dec-19 10:08 34.200241 -118.364526 0 781ft 0kts
14-Dec-19 10:09 34.200241 -118.364526 0 781ft 0kts
14-Dec-19 10:10 34.200242 -118.364526 0 781ft 0kts
14-Dec-19 10:11 34.200242 -118.364526 0 781ft 0kts
14-Dec-19 10:12 34.200243 -118.364526 0 781ft 0kts
14-Dec-19 10:13 34.200243 -118.364526 0 781ft 0kts
14-Dec-19 10:14 34.200244 -118.364526 0 781ft 0kts
14-Dec-19 10:15 34.200244 -118.364526 0 781ft 0kts
14-Dec-19 10:16 34.200245 -118.364526 0 781ft 0kts
14-Dec-19 10:17 34.200245 -118.364526 0 781ft 0kts
14-Dec-19 10:18 34.200246 -118.364526 0 781ft 0kts
14-Dec-19 10:19 34.200246 -118.364526 0 781ft 0kts
14-Dec-19 10:20 34.200247 -118.364526 0 781ft 0kts
14-Dec-19 10:21 34.200247 -118.364526 0 781ft 0kts
14-Dec-19 10:22 34.200248 -118.364526 0 781ft 0kts
14-Dec-19 10:23 34.200248 -118.364526 0 781ft 0kts
14-Dec-19 10:24 34.200249 -118.364526 0 781ft 0kts
14-Dec-19 10:25 34.200249 -118.364526 0 781ft 0kts
14-Dec-19 10:26 34.200250 -118.364526 0 781ft 0kts
14-Dec-19 10:27 34.200285 -118.364545 309 781ft 3kts
14-Dec-19 10:28 34.199008 -118.368307 268 781ft 25kts
14-Dec-19 10:29 34.198542 -118.368962 182 781ft 0kts
14-Dec-19 10:30 34.198536 -118.368962 181 781ft 0kts
14-Dec-19 10:31 34.198520 -118.368963 181 781ft 2kts
14-Dec-19 10:32 34.197733 -118.349572 94 1131ft 107kts
14-Dec-19 10:33 34.178912 -118.349115 225 2244ft 112kts
14-Dec-19 10:34 34.159175 -118.379201 225 3334ft 114kts
14-Dec-19 10:35 34.138665 -118.410349 225 4030ft 137kts
14-Dec-19 10:36 34.140975 -118.450698 346 4360ft 152kts
14-Dec-19 10:37 34.179430 -118.458264 352 5423ft 132kts
14-Dec-19 10:38 34.215187 -118.464761 352 6300ft 130kts
14-Dec-19 10:39 34.251238 -118.471150 352 7038ft 133kts
14-Dec-19 10:40 34.288310 -118.478467 338 7649ft 136kts
14-Dec-19 10:41 34.322808 -118.497103 349 8228ft 134kts
14-Dec-19 10:42 34.359311 -118.502475 0 8811ft 130kts
14-Dec-19 10:43 34.383218 -118.476600 62 9403ft 112kts
14-Dec-19 10:44 34.397737 -118.442770 69 9849ft 114kts
14-Dec-19 10:45 34.413348 -118.408519 61 10254ft 116kts
14-Dec-19 10:46 34.433230 -118.377240 53 10599ft 118kts
14-Dec-19 10:47 34.455121 -118.347274 54 10880ft 121kts
14-Dec-19 10:48 34.477944 -118.312263 58 11021ft 145kts
14-Dec-19 10:49 34.502946 -118.269797 58 11005ft 161kts
14-Dec-19 10:50 34.530771 -118.225372 56 11004ft 170kts
14-Dec-19 10:51 34.559737 -118.179104 57 11005ft 173kts
14-Dec-19 10:52 34.589049 -118.131991 56 10999ft 174kts
14-Dec-19 10:53 34.618185 -118.085105 56 10999ft 174kts
14-Dec-19 10:54 34.646042 -118.037825 77 11007ft 169kts
14-Dec-19 10:55 34.657875 -117.982433 79 10998ft 170kts
14-Dec-19 10:56 34.658803 -117.926437 99 11001ft 166kts
14-Dec-19 10:57 34.657828 -117.870230 89 10999ft 168kts
14-Dec-19 10:58 34.661596 -117.813652 86 10997ft 170kts
14-Dec-19 10:59 34.671506 -117.753670 84 10992ft 176kts
14-Dec-19 11:00 34.686724 -117.698318 65 11001ft 175kts
14-Dec-19 11:01 34.700690 -117.643382 85 11001ft 169kts
14-Dec-19 11:02 34.707034 -117.586918 84 10997ft 169kts
14-Dec-19 11:03 34.716815 -117.530842 78 11000ft 170kts
14-Dec-19 11:04 34.731901 -117.476151 72 11000ft 171kts
14-Dec-19 11:05 34.749760 -117.422376 72 11001ft 171kts
14-Dec-19 11:06 34.766375 -117.368028 75 10998ft 171kts
14-Dec-19 11:07 34.779870 -117.312838 78 10998ft 170kts
14-Dec-19 11:08 34.791719 -117.257191 79 11002ft 169kts
14-Dec-19 11:09 34.804393 -117.201724 77 10999ft 169kts
14-Dec-19 11:10 34.819524 -117.143841 75 10990ft 178kts
14-Dec-19 11:11 34.834757 -117.087488 76 10998ft 172kts
14-Dec-19 11:12 34.848846 -117.032149 77 11001ft 170kts
14-Dec-19 11:13 34.862222 -116.976971 77 11003ft 170kts
14-Dec-19 11:14 34.876004 -116.921594 76 11000ft 170kts
14-Dec-19 11:15 34.890065 -116.866510 76 11000ft 170kts
14-Dec-19 11:16 34.903943 -116.811203 77 10999ft 170kts
14-Dec-19 11:17 34.917883 -116.755829 76 11002ft 170kts
14-Dec-19 11:18 34.931724 -116.700561 76 10999ft 170kts
14-Dec-19 11:19 34.945634 -116.645237 77 11000ft 170kts
14-Dec-19 11:20 34.959332 -116.589984 78 11003ft 170kts
14-Dec-19 11:21 34.977984 -116.532123 68 10989ft 184kts
14-Dec-19 11:22 35.000894 -116.478491 61 11000ft 176kts
14-Dec-19 11:23 35.027735 -116.428735 60 10997ft 174kts
14-Dec-19 11:24 35.054973 -116.379632 59 11001ft 174kts
14-Dec-19 11:25 35.084498 -116.332439 55 11002ft 175kts
14-Dec-19 11:26 35.116088 -116.287023 51 10999ft 176kts
14-Dec-19 11:27 35.131840 -116.232713 79 10998ft 170kts
14-Dec-19 11:28 35.149567 -116.178712 69 10999ft 172kts
14-Dec-19 11:29 35.169519 -116.125418 69 11002ft 172kts
14-Dec-19 11:30 35.189475 -116.072266 69 11000ft 172kts
14-Dec-19 11:31 35.209421 -116.018937 71 11000ft 172kts
14-Dec-19 11:32 35.229484 -115.965538 69 11001ft 172kts
14-Dec-19 11:33 35.249327 -115.912265 69 10995ft 172kts
14-Dec-19 11:34 35.269275 -115.858890 69 11001ft 172kts
14-Dec-19 11:35 35.293092 -115.807584 61 10996ft 174kts
14-Dec-19 11:36 35.323915 -115.761523 45 10998ft 177kts
14-Dec-19 11:37 35.361312 -115.721900 44 10998ft 177kts
14-Dec-19 11:39 35.398449 -115.682235 48 10999ft 177kts
14-Dec-19 11:40 35.433075 -115.638447 52 10814ft 183kts
14-Dec-19 11:41 35.465814 -115.589142 55 10338ft 190kts
14-Dec-19 11:42 35.498653 -115.538064 54 10004ft 188kts
14-Dec-19 11:43 35.532093 -115.491117 50 9998ft 179kts
14-Dec-19 11:44 35.566390 -115.447352 49 10000ft 177kts
14-Dec-19 11:45 35.600755 -115.403770 50 10001ft 176kts
14-Dec-19 11:46 35.633913 -115.358952 52 10000ft 177kts
14-Dec-19 11:47 35.666494 -115.312974 52 9802ft 187kts
14-Dec-19 11:48 35.702418 -115.262929 51 8813ft 197kts
14-Dec-19 11:49 35.739794 -115.213001 50 7698ft 197kts
14-Dec-19 11:50 35.776243 -115.165066 40 6990ft 178kts
14-Dec-19 11:51 35.824114 -115.150946 12 7000ft 177kts
14-Dec-19 11:52 35.872736 -115.140319 12 7001ft 177kts
14-Dec-19 11:53 35.921389 -115.129720 12 7000ft 177kts
14-Dec-19 11:54 35.970029 -115.119075 12 7002ft 176kts
14-Dec-19 11:55 36.018383 -115.108497 12 6995ft 177kts
14-Dec-19 11:55 36.058598 -115.099697 12 6829ft 173kts
14-Dec-19 11:57 36.115061 -115.087273 12 5628ft 176kts
14-Dec-19 11:58 36.158571 -115.088325 321 5581ft 151kts
14-Dec-19 11:58 36.169681 -115.126235 222 5215ft 159kts
14-Dec-19 12:00 36.121502 -115.143226 204 3343ft 126kts
14-Dec-19 12:00 36.100393 -115.155805 199 2268ft 96kts
14-Dec-19 12:01 36.088721 -115.161637 116 2184ft 13kts
14-Dec-19 12:03 36.088549 -115.161208 116 2184ft 9kts
14-Dec-19 12:03 36.087421 -115.158077 109 2184ft 0kts
14-Dec-19 12:04 36.083576 -115.154882 156 2184ft 22kts
14-Dec-19 12:05 36.079943 -115.147777 115 2184ft 39kts
14-Dec-19 12:06 36.081501 -115.144927 13 2184ft 0kts
14-Dec-19 12:07 36.081501 -115.144927 13 2184ft 0kts
14-Dec-19 12:08 36.081502 -115.144927 13 2184ft 0kts
14-Dec-19 12:09 36.081502 -115.144926 13 2184ft 0kts
14-Dec-19 12:10 36.081502 -115.144926 13 2184ft 0kts
14-Dec-19 12:11 36.081503 -115.144926 13 2184ft 0kts
14-Dec-19 12:12 34.195747 -118.365167 180 778ft 0kts
14-Dec-19 12:13 34.195747 -118.365167 180 778ft 0kts
14-Dec-19 12:14 34.195747 -118.365167 180 778ft 0kts
14-Dec-19 12:15 34.195747 -118.365167 180 778ft 0kts

Navigation Log

Ident Type
Flight plan parsing failed, navigation log unavailable